createdAt,value
2022-08-17T00:00:44.112Z,12.90
2022-08-17T00:03:17.916Z,13.73
2022-08-17T00:05:52.170Z,15.95
2022-08-17T00:08:23.558Z,16.40
2022-08-17T00:10:53.747Z,11.13
2022-08-17T00:13:26.315Z,11.55
2022-08-17T00:15:59.962Z,12.95
2022-08-17T00:19:06.830Z,13.60
2022-08-17T00:21:25.342Z,13.60
2022-08-17T00:23:55.456Z,10.27
2022-08-17T00:26:44.303Z,12.27
2022-08-17T00:29:19.978Z,11.80
2022-08-17T00:31:50.177Z,13.95
2022-08-17T00:34:19.758Z,12.30
2022-08-17T00:36:50.324Z,11.95
2022-08-17T00:39:19.508Z,16.10
2022-08-17T00:41:48.683Z,12.30
2022-08-17T00:44:17.756Z,12.75
2022-08-17T00:49:19.626Z,13.90
2022-08-17T00:51:54.382Z,13.98
2022-08-17T00:54:28.046Z,11.60
2022-08-17T00:57:00.968Z,14.07
2022-08-17T00:59:38.718Z,19.63
2022-08-17T01:02:10.279Z,12.35
2022-08-17T01:04:39.855Z,13.05
2022-08-17T01:07:11.301Z,12.70
2022-08-17T01:09:41.542Z,11.82
2022-08-17T01:12:12.199Z,12.15
2022-08-17T01:14:42.025Z,13.68
2022-08-17T01:17:11.428Z,12.15
2022-08-17T01:19:42.668Z,16.17
2022-08-17T01:22:21.929Z,15.15
2022-08-17T01:27:23.318Z,14.90
2022-08-17T01:29:58.646Z,11.90
2022-08-17T01:32:30.393Z,15.73
2022-08-17T01:35:00.741Z,12.35
2022-08-17T01:37:34.688Z,13.63
2022-08-17T01:40:07.625Z,13.48
2022-08-17T01:42:41.301Z,14.30
2022-08-17T01:45:13.416Z,16.75
2022-08-17T01:47:42.901Z,13.07
2022-08-17T01:50:16.011Z,13.50
2022-08-17T01:52:49.290Z,12.77
2022-08-17T01:55:27.212Z,14.30
2022-08-17T01:57:58.157Z,14.37
2022-08-17T02:00:51.760Z,14.13
2022-08-17T02:03:18.857Z,15.38
2022-08-17T02:08:20.698Z,15.43
2022-08-17T02:13:40.887Z,14.10
2022-08-17T02:16:10.359Z,12.45
2022-08-17T02:18:39.571Z,12.65
2022-08-17T02:21:09.572Z,15.63
2022-08-17T02:23:43.161Z,12.52
2022-08-17T02:26:25.591Z,12.30
2022-08-17T02:28:56.010Z,13.73
2022-08-17T02:34:03.280Z,19.48
2022-08-17T02:36:35.610Z,14.38
2022-08-17T02:39:07.839Z,16.40
2022-08-17T02:41:37.693Z,11.98
2022-08-17T02:44:07.596Z,16.80
2022-08-17T02:46:37.252Z,12.70
2022-08-17T02:49:06.903Z,13.30
2022-08-17T02:51:36.362Z,13.50
2022-08-17T02:54:40.104Z,14.48
2022-08-17T02:56:56.589Z,12.93
2022-08-17T02:59:25.767Z,17.40
2022-08-17T03:04:24.363Z,13.07
2022-08-17T03:06:53.298Z,14.27
2022-08-17T03:09:23.637Z,14.23
2022-08-17T03:11:53.161Z,16.70
2022-08-17T03:14:26.088Z,14.70
2022-08-17T03:16:55.669Z,12.80
2022-08-17T03:19:24.614Z,11.90
2022-08-17T03:21:55.359Z,13.73
2022-08-17T03:24:28.729Z,15.02
2022-08-17T03:26:58.177Z,13.48
2022-08-17T03:29:27.439Z,12.15
2022-08-17T03:31:56.441Z,16.15
2022-08-17T03:36:54.561Z,14.88
2022-08-17T03:39:25.266Z,15.80
2022-08-17T03:41:54.372Z,13.88
2022-08-17T03:47:09.831Z,14.35
2022-08-17T03:49:56.322Z,17.38
2022-08-17T03:52:42.905Z,16.75
2022-08-17T03:55:35.810Z,14.52
2022-08-17T03:58:05.729Z,17.88
2022-08-17T04:00:39.767Z,15.18
2022-08-17T04:03:09.148Z,13.93
2022-08-17T04:05:38.447Z,15.98
2022-08-17T04:08:09.856Z,15.30
2022-08-17T04:10:44.994Z,15.85
2022-08-17T04:13:14.921Z,16.77
2022-08-17T04:15:53.470Z,20.60
2022-08-17T04:20:51.268Z,15.15
2022-08-17T04:23:20.925Z,13.60
2022-08-17T04:25:53.288Z,12.35
2022-08-17T04:28:22.630Z,14.38
2022-08-17T04:30:51.949Z,13.80
2022-08-17T04:33:24.123Z,17.30
2022-08-17T04:35:56.023Z,13.95
2022-08-17T04:38:27.203Z,18.17
2022-08-17T04:41:15.723Z,14.93
2022-08-17T04:43:46.488Z,16.95
2022-08-17T04:46:17.626Z,15.30
2022-08-17T04:48:49.152Z,16.70
2022-08-17T04:51:21.058Z,14.90
2022-08-17T04:53:54.138Z,14.07
2022-08-17T04:56:27.211Z,13.27
2022-08-17T04:58:59.465Z,18.80
2022-08-17T05:01:33.121Z,15.63
2022-08-17T05:04:33.518Z,18.58
2022-08-17T05:06:56.155Z,13.98
2022-08-17T05:09:25.262Z,15.07
2022-08-17T05:11:56.379Z,20.35
2022-08-17T05:14:32.900Z,17.50
2022-08-17T05:17:09.412Z,16.00
2022-08-17T05:19:41.274Z,15.88
2022-08-17T05:22:10.506Z,13.18
2022-08-17T05:27:23.978Z,17.42
2022-08-17T05:29:54.515Z,15.00
2022-08-17T05:32:38.804Z,15.90
2022-08-17T05:35:10.189Z,15.60
2022-08-17T05:37:39.467Z,18.10
2022-08-17T05:42:40.800Z,14.50
2022-08-17T05:45:11.996Z,21.88
2022-08-17T05:47:42.060Z,16.45
2022-08-17T05:50:18.053Z,14.55
2022-08-17T05:52:57.186Z,15.10
2022-08-17T05:55:36.042Z,22.83
2022-08-17T05:58:21.301Z,16.73
2022-08-17T06:00:58.911Z,17.48
2022-08-17T06:03:43.926Z,16.55
2022-08-17T06:06:31.845Z,13.27
2022-08-17T06:09:27.595Z,14.50
2022-08-17T06:12:04.508Z,17.83
2022-08-17T06:14:54.700Z,14.93
2022-08-17T06:17:28.094Z,13.68
2022-08-17T06:20:00.303Z,19.38
2022-08-17T06:22:34.548Z,13.15
2022-08-17T06:25:10.326Z,17.10
2022-08-17T06:27:45.063Z,15.45
2022-08-17T06:30:18.965Z,17.73
2022-08-17T06:32:51.163Z,19.95
2022-08-17T06:35:34.065Z,11.35
2022-08-17T06:38:33.944Z,13.98
2022-08-17T06:41:15.637Z,14.40
2022-08-17T06:44:06.912Z,14.90
2022-08-17T06:46:40.509Z,12.93
2022-08-17T06:49:26.733Z,11.38
2022-08-17T06:52:02.349Z,10.23
2022-08-17T06:54:40.009Z,14.23
2022-08-17T06:57:18.916Z,12.77
2022-08-17T06:59:55.456Z,15.52
2022-08-17T07:03:02.792Z,13.55
2022-08-17T07:05:33.944Z,12.73
2022-08-17T07:08:09.339Z,13.15
2022-08-17T07:10:43.803Z,11.45
2022-08-17T07:13:29.554Z,11.88
2022-08-17T07:16:13.231Z,12.70
2022-08-17T07:18:44.154Z,11.65
2022-08-17T07:21:27.187Z,12.25
2022-08-17T07:28:20.805Z,13.07
2022-08-17T07:31:08.393Z,15.68
2022-08-17T07:33:39.736Z,14.68
2022-08-17T07:36:29.784Z,8.25
2022-08-17T07:38:59.837Z,10.23
2022-08-17T07:41:53.159Z,8.75
2022-08-17T07:44:19.931Z,10.43
2022-08-17T07:47:12.094Z,10.38
2022-08-17T07:49:44.752Z,8.30
2022-08-17T07:52:47.931Z,11.65
2022-08-17T07:55:30.686Z,8.63
2022-08-17T07:58:00.965Z,17.02
2022-08-17T08:00:31.974Z,12.35
2022-08-17T08:03:13.351Z,12.57
2022-08-17T08:05:53.110Z,8.48
2022-08-17T08:08:29.622Z,8.38
2022-08-17T08:11:29.188Z,8.98
2022-08-17T08:14:17.676Z,12.18
2022-08-17T08:16:59.089Z,13.32
2022-08-17T08:19:31.399Z,10.40
2022-08-17T08:22:06.862Z,8.98
2022-08-17T08:24:55.483Z,9.30
2022-08-17T08:27:38.604Z,9.10
2022-08-17T08:30:14.191Z,10.75
2022-08-17T08:32:57.229Z,9.43
2022-08-17T08:35:32.852Z,9.07
2022-08-17T08:38:11.926Z,9.82
2022-08-17T08:40:54.135Z,9.95
2022-08-17T08:43:36.253Z,10.00
2022-08-17T08:46:19.682Z,10.00
2022-08-17T08:50:02.038Z,10.93
2022-08-17T08:52:43.551Z,9.15
2022-08-17T08:55:20.168Z,12.70
2022-08-17T08:57:53.598Z,9.25
2022-08-17T09:00:25.968Z,9.82
2022-08-17T09:03:51.222Z,8.75
2022-08-17T09:06:39.000Z,11.75
2022-08-17T09:09:24.680Z,10.13
2022-08-17T09:12:05.793Z,9.02
2022-08-17T09:14:45.048Z,8.82
2022-08-17T09:17:20.293Z,9.02
2022-08-17T09:19:55.681Z,8.30
2022-08-17T09:22:35.230Z,8.85
2022-08-17T09:25:11.219Z,14.30
2022-08-17T09:27:52.079Z,10.05
2022-08-17T09:30:23.819Z,12.13
2022-08-17T09:32:57.543Z,9.55
2022-08-17T09:35:37.103Z,10.10
2022-08-17T09:38:17.213Z,10.75
2022-08-17T09:40:52.994Z,11.38
2022-08-17T09:43:32.643Z,10.65
2022-08-17T09:46:09.019Z,10.07
2022-08-17T09:48:42.920Z,9.13
2022-08-17T09:51:17.100Z,12.85
2022-08-17T09:53:46.442Z,10.98
2022-08-17T09:56:48.262Z,12.63
2022-08-17T09:59:38.525Z,10.85
2022-08-17T10:02:36.100Z,12.25
2022-08-17T10:05:08.859Z,11.48
2022-08-17T10:07:44.774Z,11.00
2022-08-17T10:10:20.513Z,10.07
2022-08-17T10:12:57.952Z,10.77
2022-08-17T10:15:38.078Z,10.90
2022-08-17T10:18:31.922Z,11.23
2022-08-17T10:21:24.282Z,10.20
2022-08-17T10:24:18.648Z,11.88
2022-08-17T10:26:56.713Z,11.25
2022-08-17T10:29:47.292Z,8.23
2022-08-17T10:32:28.245Z,15.63
2022-08-17T10:35:16.686Z,8.98
2022-08-17T10:38:07.542Z,10.50
2022-08-17T10:40:46.397Z,9.85
2022-08-17T10:43:29.297Z,9.07
2022-08-17T10:46:30.495Z,9.68
2022-08-17T10:49:15.266Z,9.68
2022-08-17T10:51:45.961Z,9.25
2022-08-17T10:54:50.714Z,8.98
2022-08-17T10:57:43.150Z,12.00
2022-08-17T11:00:32.281Z,13.57
2022-08-17T11:03:03.388Z,12.07
2022-08-17T11:05:50.358Z,10.13
2022-08-17T11:08:38.788Z,12.95
2022-08-17T11:11:35.910Z,10.75
2022-08-17T11:14:23.974Z,10.02
2022-08-17T11:19:58.148Z,7.07
2022-08-17T11:22:50.734Z,12.32
2022-08-17T11:25:23.025Z,7.35
2022-08-17T11:28:06.335Z,11.85
2022-08-17T11:30:50.764Z,13.35
2022-08-17T11:33:59.212Z,7.40
2022-08-17T11:36:40.029Z,9.30
2022-08-17T11:39:43.802Z,11.57
2022-08-17T11:42:28.359Z,11.45
2022-08-17T11:44:59.745Z,9.63
2022-08-17T11:48:23.572Z,9.90
2022-08-17T11:51:12.671Z,9.35
2022-08-17T11:54:34.791Z,6.82
2022-08-17T11:57:43.065Z,9.05
2022-08-17T12:00:57.780Z,8.75
2022-08-17T12:03:54.166Z,7.20
2022-08-17T12:06:45.954Z,9.15
2022-08-17T12:09:20.964Z,8.68
2022-08-17T12:12:12.361Z,10.02
2022-08-17T12:17:42.889Z,10.13
2022-08-17T12:20:17.242Z,12.40
2022-08-17T12:22:57.650Z,7.57
2022-08-17T12:25:37.211Z,9.88
2022-08-17T12:28:20.157Z,9.25
2022-08-17T12:30:52.332Z,8.48
2022-08-17T12:33:25.519Z,9.00
2022-08-17T12:36:03.042Z,9.82
2022-08-17T12:38:34.818Z,11.65
2022-08-17T12:41:23.142Z,8.80
2022-08-17T12:44:02.189Z,11.57
2022-08-17T12:46:45.762Z,8.40
2022-08-17T12:49:18.165Z,7.88
2022-08-17T12:51:48.977Z,7.80
2022-08-17T12:54:29.130Z,9.25
2022-08-17T12:57:06.098Z,9.60
2022-08-17T12:59:35.518Z,10.68
2022-08-17T13:02:05.694Z,9.18
2022-08-17T13:04:34.878Z,8.48
2022-08-17T13:07:03.988Z,13.45
2022-08-17T13:09:36.070Z,11.18
2022-08-17T13:12:11.285Z,10.52
2022-08-17T13:14:47.018Z,8.40
2022-08-17T13:17:28.600Z,8.77
2022-08-17T13:19:58.465Z,8.25
2022-08-17T13:22:30.551Z,8.65
2022-08-17T13:25:04.093Z,8.07
2022-08-17T13:27:38.351Z,7.95
2022-08-17T13:30:13.033Z,10.95
2022-08-17T13:32:47.234Z,8.27
2022-08-17T13:35:41.030Z,8.77
2022-08-17T13:38:13.647Z,10.40
2022-08-17T13:40:49.302Z,8.57
2022-08-17T13:43:45.756Z,8.02
2022-08-17T13:46:22.201Z,8.27
2022-08-17T13:49:01.836Z,11.48
2022-08-17T13:51:35.300Z,9.90
2022-08-17T13:54:26.758Z,13.13
2022-08-17T13:57:08.042Z,10.35
2022-08-17T13:59:54.945Z,9.70
2022-08-17T14:02:28.552Z,14.02
2022-08-17T14:05:00.565Z,8.95
2022-08-17T14:07:37.325Z,9.38
2022-08-17T14:10:12.757Z,11.30
2022-08-17T14:12:45.693Z,10.68
2022-08-17T14:15:20.551Z,9.65
2022-08-17T14:17:50.336Z,9.57
2022-08-17T14:20:21.602Z,10.85
2022-08-17T14:22:53.491Z,9.98
2022-08-17T14:25:30.263Z,12.00
2022-08-17T14:28:00.068Z,10.35
2022-08-17T14:30:32.319Z,12.38
2022-08-17T14:33:02.266Z,7.28
2022-08-17T14:35:31.522Z,13.02
2022-08-17T14:38:02.191Z,12.50
2022-08-17T14:40:33.472Z,8.75
2022-08-17T14:43:02.691Z,10.95
2022-08-17T14:45:33.684Z,11.15
2022-08-17T14:48:07.592Z,16.55
2022-08-17T14:50:40.689Z,10.52
2022-08-17T14:53:12.462Z,10.95
2022-08-17T14:55:41.589Z,11.50
2022-08-17T14:58:11.262Z,9.05
2022-08-17T15:00:43.641Z,12.55
2022-08-17T15:03:14.530Z,11.25
2022-08-17T15:05:44.316Z,11.95
2022-08-17T15:08:13.946Z,15.18
2022-08-17T15:10:44.817Z,12.23
2022-08-17T15:13:20.744Z,12.20
2022-08-17T15:15:52.570Z,12.13
2022-08-17T15:18:21.833Z,15.30
2022-08-17T15:20:52.805Z,12.90
2022-08-17T15:23:26.225Z,12.10
2022-08-17T15:25:56.370Z,13.10
2022-08-17T15:28:25.589Z,14.27
2022-08-17T15:30:56.253Z,13.35
2022-08-17T15:33:30.284Z,12.10
2022-08-17T15:36:01.443Z,14.25
2022-08-17T15:38:34.160Z,16.65
2022-08-17T15:41:04.304Z,16.90
2022-08-17T15:43:34.744Z,13.77
2022-08-17T15:46:10.514Z,14.32
2022-08-17T15:48:44.634Z,13.90
2022-08-17T15:51:17.832Z,13.55
2022-08-17T15:53:50.327Z,13.05
2022-08-17T15:56:20.121Z,13.23
2022-08-17T15:58:50.596Z,12.20
2022-08-17T16:03:01.249Z,14.90
2022-08-17T16:04:26.667Z,14.57
2022-08-17T16:07:00.022Z,13.13
2022-08-17T16:09:29.656Z,19.15
2022-08-17T16:11:58.961Z,14.23
2022-08-17T16:14:32.392Z,14.52
2022-08-17T16:17:38.935Z,11.95
2022-08-17T16:19:57.112Z,14.45
2022-08-17T16:22:33.597Z,13.25
2022-08-17T16:25:07.542Z,17.15
2022-08-17T16:27:37.054Z,13.38
2022-08-17T16:30:12.508Z,15.80
2022-08-17T16:32:49.314Z,17.90
2022-08-17T16:35:20.523Z,13.55
2022-08-17T16:37:51.306Z,15.57
2022-08-17T16:40:21.061Z,12.77
2022-08-17T16:42:51.514Z,16.52
2022-08-17T16:45:26.022Z,14.68
2022-08-17T16:48:01.555Z,13.65
2022-08-17T16:50:32.068Z,12.02
2022-08-17T16:53:06.644Z,13.13
2022-08-17T16:55:36.779Z,12.73
2022-08-17T16:58:08.844Z,12.45
2022-08-17T17:00:39.341Z,11.23
2022-08-17T17:03:19.393Z,13.35
2022-08-17T17:06:08.322Z,11.43
2022-08-17T17:08:44.611Z,11.13
2022-08-17T17:11:19.381Z,10.45
2022-08-17T17:13:54.744Z,12.55
2022-08-17T17:16:33.133Z,10.45
2022-08-17T17:19:11.993Z,11.88
2022-08-17T17:21:48.926Z,11.90
2022-08-17T17:24:28.817Z,11.45
2022-08-17T17:27:13.654Z,13.77
2022-08-17T17:29:56.625Z,10.25
2022-08-17T17:32:37.965Z,11.70
2022-08-17T17:35:16.476Z,13.07
2022-08-17T17:37:47.978Z,14.38
2022-08-17T17:40:23.139Z,12.60
2022-08-17T17:42:55.831Z,13.45
2022-08-17T17:45:31.391Z,14.38
2022-08-17T17:48:00.965Z,10.68
2022-08-17T17:50:38.137Z,12.75
2022-08-17T17:53:11.362Z,15.52
2022-08-17T17:56:01.002Z,12.10
2022-08-17T17:58:42.856Z,15.90
2022-08-17T18:01:26.885Z,14.35
2022-08-17T18:04:20.615Z,11.32
2022-08-17T18:07:17.923Z,11.35
2022-08-17T18:10:04.114Z,12.38
2022-08-17T18:12:41.717Z,13.10
2022-08-17T18:15:31.478Z,14.20
2022-08-17T18:18:06.718Z,16.00
2022-08-17T18:20:46.610Z,14.75
2022-08-17T18:23:28.627Z,17.80
2022-08-17T18:25:59.497Z,15.50
2022-08-17T18:28:32.955Z,16.17
2022-08-17T18:31:09.581Z,17.27
2022-08-17T18:33:43.321Z,18.98
2022-08-17T18:36:13.183Z,16.50
2022-08-17T18:38:45.437Z,16.90
2022-08-17T18:41:30.600Z,19.52
2022-08-17T18:44:03.015Z,16.45
2022-08-17T18:46:35.437Z,17.23
2022-08-17T18:49:10.564Z,17.63
2022-08-17T18:51:43.181Z,17.00
2022-08-17T18:54:22.738Z,20.08
2022-08-17T18:56:57.372Z,16.70
2022-08-17T18:59:36.362Z,20.90
2022-08-17T19:02:44.691Z,22.90
2022-08-17T19:05:29.725Z,22.10
2022-08-17T19:08:19.726Z,19.88
2022-08-17T19:10:53.814Z,24.13
2022-08-17T19:13:29.660Z,22.02
2022-08-17T19:16:14.010Z,19.83
2022-08-17T19:18:49.913Z,24.75
2022-08-17T19:21:24.945Z,22.10
2022-08-17T19:24:00.394Z,21.83
2022-08-17T19:26:53.954Z,24.67
2022-08-17T19:29:31.054Z,31.45
2022-08-17T19:32:01.221Z,27.02
2022-08-17T19:34:34.475Z,23.92
2022-08-17T19:37:10.928Z,25.67
2022-08-17T19:39:51.123Z,28.45
2022-08-17T19:42:42.502Z,23.95
2022-08-17T19:45:20.809Z,23.88
2022-08-17T19:50:38.531Z,30.73
2022-08-17T19:53:18.553Z,24.92
2022-08-17T19:55:55.142Z,26.48
2022-08-17T19:58:41.258Z,24.58
2022-08-17T20:01:20.707Z,27.83
2022-08-17T20:03:59.322Z,23.15
2022-08-17T20:06:34.307Z,20.98
2022-08-17T20:09:14.926Z,25.80
2022-08-17T20:11:49.494Z,24.40
2022-08-17T20:14:23.136Z,23.02
2022-08-17T20:16:52.661Z,25.98
2022-08-17T20:19:43.341Z,28.55
2022-08-17T20:22:18.778Z,25.55
2022-08-17T20:24:55.528Z,23.77
2022-08-17T20:27:31.678Z,25.48
2022-08-17T20:30:10.534Z,25.75
2022-08-17T20:32:55.479Z,29.13
2022-08-17T20:35:28.967Z,25.25
2022-08-17T20:38:02.223Z,32.13
2022-08-17T20:40:35.279Z,38.15
2022-08-17T20:43:51.248Z,27.45
2022-08-17T20:46:46.318Z,24.83
2022-08-17T20:49:23.984Z,27.02
2022-08-17T20:52:01.529Z,26.80
2022-08-17T20:54:48.307Z,28.70
2022-08-17T20:57:48.874Z,29.52
2022-08-17T21:00:47.181Z,26.67
2022-08-17T21:03:50.812Z,25.52
2022-08-17T21:06:26.146Z,36.97
2022-08-17T21:08:59.148Z,25.48
2022-08-17T21:12:04.423Z,26.10
2022-08-17T21:14:58.097Z,24.27
2022-08-17T21:17:50.189Z,29.95
2022-08-17T21:20:33.398Z,25.88
2022-08-17T21:23:23.333Z,26.08
2022-08-17T21:26:23.633Z,25.75
2022-08-17T21:29:30.014Z,27.48
2022-08-17T21:32:24.148Z,27.95
2022-08-17T21:35:25.165Z,29.10
2022-08-17T21:38:04.419Z,28.52
2022-08-17T21:40:35.099Z,26.85
2022-08-17T21:43:22.859Z,29.13
2022-08-17T21:46:04.423Z,30.95
2022-08-17T21:48:43.285Z,31.15
2022-08-17T21:51:18.724Z,42.50
2022-08-17T21:53:51.680Z,31.52
2022-08-17T21:56:28.480Z,33.15
2022-08-17T21:59:02.933Z,35.42
2022-08-17T22:01:35.930Z,33.38
2022-08-17T22:04:19.005Z,37.47
2022-08-17T22:06:57.308Z,30.88
2022-08-17T22:09:31.561Z,30.65
2022-08-17T22:12:05.759Z,32.05
2022-08-17T22:14:52.936Z,29.27
2022-08-17T22:17:26.169Z,33.90
2022-08-17T22:19:59.018Z,32.08
2022-08-17T22:22:56.040Z,28.65
2022-08-17T22:25:27.727Z,32.80
2022-08-17T22:28:00.297Z,31.77
2022-08-17T22:30:40.160Z,34.03
2022-08-17T22:33:41.592Z,34.45
2022-08-17T22:36:30.172Z,27.02
2022-08-17T22:39:01.619Z,32.70
2022-08-17T22:41:39.179Z,31.75
2022-08-17T22:44:17.639Z,31.10
2022-08-17T22:46:59.047Z,33.53
2022-08-17T22:49:32.918Z,29.80
2022-08-17T22:52:09.624Z,31.35
2022-08-17T22:54:56.223Z,30.20
2022-08-17T22:57:45.145Z,38.58
2022-08-17T23:00:35.617Z,36.35
2022-08-17T23:03:15.401Z,32.72
2022-08-17T23:05:47.474Z,36.38
2022-08-17T23:08:21.440Z,40.92
2022-08-17T23:10:50.933Z,34.55
2022-08-17T23:13:21.769Z,36.55
2022-08-17T23:15:52.335Z,38.95
2022-08-17T23:18:23.550Z,39.42
2022-08-17T23:20:52.775Z,35.88
2022-08-17T23:23:23.998Z,37.88
2022-08-17T23:25:54.461Z,39.13
2022-08-17T23:28:25.227Z,36.42
2022-08-17T23:30:54.413Z,39.13
2022-08-17T23:33:30.069Z,36.45
2022-08-17T23:35:59.788Z,40.53
2022-08-17T23:38:29.240Z,45.25
2022-08-17T23:41:01.595Z,36.25
2022-08-17T23:43:32.769Z,44.40
2022-08-17T23:46:04.028Z,40.08
2022-08-17T23:48:35.789Z,38.70
2022-08-17T23:51:10.619Z,37.13
2022-08-17T23:53:44.184Z,39.03
2022-08-17T23:56:13.429Z,38.83
2022-08-17T23:58:45.169Z,37.58
